sensor_id;sensor_type;location;lat;lon;timestamp;P1;durP1;ratioP1;P2;durP2;ratioP2
55140;SDS011;41035;44.280;19.870;2022-10-31T00:01:18;19.73;;;12.05;;
55140;SDS011;41035;44.280;19.870;2022-10-31T00:03:45;20.52;;;11.57;;
55140;SDS011;41035;44.280;19.870;2022-10-31T00:06:11;19.40;;;11.98;;
55140;SDS011;41035;44.280;19.870;2022-10-31T00:08:37;19.35;;;12.20;;
55140;SDS011;41035;44.280;19.870;2022-10-31T00:11:03;21.60;;;11.63;;
55140;SDS011;41035;44.280;19.870;2022-10-31T00:13:29;20.92;;;13.27;;
55140;SDS011;41035;44.280;19.870;2022-10-31T00:15:56;23.40;;;13.32;;
55140;SDS011;41035;44.280;19.870;2022-10-31T00:18:24;21.60;;;13.30;;
55140;SDS011;41035;44.280;19.870;2022-10-31T00:20:58;18.80;;;11.10;;
55140;SDS011;41035;44.280;19.870;2022-10-31T00:23:24;19.63;;;10.98;;
55140;SDS011;41035;44.280;19.870;2022-10-31T00:25:50;20.85;;;10.48;;
55140;SDS011;41035;44.280;19.870;2022-10-31T00:28:16;25.77;;;10.85;;
55140;SDS011;41035;44.280;19.870;2022-10-31T00:30:42;18.98;;;10.27;;
55140;SDS011;41035;44.280;19.870;2022-10-31T00:33:08;21.15;;;10.98;;
55140;SDS011;41035;44.280;19.870;2022-10-31T00:35:34;18.33;;;9.75;;
55140;SDS011;41035;44.280;19.870;2022-10-31T00:38:00;15.95;;;9.88;;
55140;SDS011;41035;44.280;19.870;2022-10-31T00:40:26;21.58;;;10.48;;
55140;SDS011;41035;44.280;19.870;2022-10-31T00:42:53;17.42;;;9.48;;
55140;SDS011;41035;44.280;19.870;2022-10-31T00:45:19;32.08;;;9.02;;
55140;SDS011;41035;44.280;19.870;2022-10-31T00:47:45;15.13;;;7.32;;
55140;SDS011;41035;44.280;19.870;2022-10-31T00:50:11;17.35;;;8.75;;
55140;SDS011;41035;44.280;19.870;2022-10-31T00:52:37;18.55;;;8.00;;
55140;SDS011;41035;44.280;19.870;2022-10-31T00:55:03;16.23;;;7.68;;
55140;SDS011;41035;44.280;19.870;2022-10-31T00:57:29;14.63;;;7.43;;
55140;SDS011;41035;44.280;19.870;2022-10-31T00:59:55;11.80;;;6.45;;
55140;SDS011;41035;44.280;19.870;2022-10-31T01:02:21;16.42;;;7.68;;
55140;SDS011;41035;44.280;19.870;2022-10-31T01:04:47;14.00;;;7.60;;
55140;SDS011;41035;44.280;19.870;2022-10-31T01:07:13;16.08;;;8.48;;
55140;SDS011;41035;44.280;19.870;2022-10-31T01:09:40;15.98;;;8.43;;
55140;SDS011;41035;44.280;19.870;2022-10-31T01:12:06;15.43;;;8.73;;
55140;SDS011;41035;44.280;19.870;2022-10-31T01:14:32;12.30;;;7.38;;
55140;SDS011;41035;44.280;19.870;2022-10-31T01:16:59;17.15;;;9.20;;
55140;SDS011;41035;44.280;19.870;2022-10-31T01:19:25;15.43;;;7.82;;
55140;SDS011;41035;44.280;19.870;2022-10-31T01:21:53;17.02;;;7.40;;
55140;SDS011;41035;44.280;19.870;2022-10-31T01:24:20;16.80;;;7.70;;
55140;SDS011;41035;44.280;19.870;2022-10-31T01:26:46;12.35;;;7.63;;
55140;SDS011;41035;44.280;19.870;2022-10-31T01:29:12;13.32;;;7.45;;
55140;SDS011;41035;44.280;19.870;2022-10-31T01:31:39;11.90;;;7.07;;
55140;SDS011;41035;44.280;19.870;2022-10-31T01:34:05;16.05;;;8.32;;
55140;SDS011;41035;44.280;19.870;2022-10-31T01:36:33;16.30;;;7.88;;
55140;SDS011;41035;44.280;19.870;2022-10-31T01:39:00;15.88;;;8.45;;
55140;SDS011;41035;44.280;19.870;2022-10-31T01:41:28;15.93;;;8.25;;
55140;SDS011;41035;44.280;19.870;2022-10-31T01:43:59;11.57;;;6.57;;
55140;SDS011;41035;44.280;19.870;2022-10-31T01:46:39;12.70;;;7.22;;
55140;SDS011;41035;44.280;19.870;2022-10-31T01:49:10;15.55;;;6.97;;
55140;SDS011;41035;44.280;19.870;2022-10-31T01:51:38;13.75;;;7.70;;
55140;SDS011;41035;44.280;19.870;2022-10-31T01:54:08;12.63;;;7.10;;
55140;SDS011;41035;44.280;19.870;2022-10-31T01:56:36;18.42;;;9.60;;
55140;SDS011;41035;44.280;19.870;2022-10-31T01:59:04;16.10;;;10.15;;
55140;SDS011;41035;44.280;19.870;2022-10-31T02:01:33;18.13;;;11.30;;
55140;SDS011;41035;44.280;19.870;2022-10-31T02:04:00;20.80;;;11.55;;
55140;SDS011;41035;44.280;19.870;2022-10-31T02:06:27;19.73;;;11.30;;
55140;SDS011;41035;44.280;19.870;2022-10-31T02:08:57;16.10;;;12.15;;
55140;SDS011;41035;44.280;19.870;2022-10-31T02:11:24;21.63;;;12.00;;
55140;SDS011;41035;44.280;19.870;2022-10-31T02:13:51;18.30;;;11.75;;
55140;SDS011;41035;44.280;19.870;2022-10-31T02:16:17;18.90;;;11.73;;
55140;SDS011;41035;44.280;19.870;2022-10-31T02:18:43;17.05;;;11.80;;
55140;SDS011;41035;44.280;19.870;2022-10-31T02:33:42;21.08;;;12.63;;
55140;SDS011;41035;44.280;19.870;2022-10-31T02:38:53;22.67;;;14.25;;
55140;SDS011;41035;44.280;19.870;2022-10-31T02:46:42;24.17;;;14.23;;
55140;SDS011;41035;44.280;19.870;2022-10-31T02:49:11;21.13;;;14.15;;
55140;SDS011;41035;44.280;19.870;2022-10-31T02:51:38;24.10;;;14.60;;
55140;SDS011;41035;44.280;19.870;2022-10-31T02:54:04;25.10;;;15.82;;
55140;SDS011;41035;44.280;19.870;2022-10-31T02:56:32;35.17;;;19.65;;
55140;SDS011;41035;44.280;19.870;2022-10-31T02:58:59;24.95;;;15.13;;
55140;SDS011;41035;44.280;19.870;2022-10-31T03:01:31;23.40;;;12.80;;
55140;SDS011;41035;44.280;19.870;2022-10-31T03:09:03;23.88;;;15.15;;
55140;SDS011;41035;44.280;19.870;2022-10-31T03:11:35;24.83;;;14.40;;
55140;SDS011;41035;44.280;19.870;2022-10-31T03:14:12;21.05;;;13.48;;
55140;SDS011;41035;44.280;19.870;2022-10-31T03:16:40;23.02;;;13.13;;
55140;SDS011;41035;44.280;19.870;2022-10-31T03:19:11;21.40;;;13.20;;
55140;SDS011;41035;44.280;19.870;2022-10-31T03:21:44;19.23;;;11.27;;
55140;SDS011;41035;44.280;19.870;2022-10-31T03:24:10;17.27;;;11.35;;
55140;SDS011;41035;44.280;19.870;2022-10-31T03:26:39;18.80;;;11.25;;
55140;SDS011;41035;44.280;19.870;2022-10-31T03:29:06;15.53;;;10.43;;
55140;SDS011;41035;44.280;19.870;2022-10-31T03:31:34;15.43;;;9.30;;
55140;SDS011;41035;44.280;19.870;2022-10-31T03:34:01;19.50;;;10.15;;
55140;SDS011;41035;44.280;19.870;2022-10-31T03:36:29;16.52;;;9.43;;
55140;SDS011;41035;44.280;19.870;2022-10-31T03:38:56;17.88;;;9.32;;
55140;SDS011;41035;44.280;19.870;2022-10-31T03:41:23;20.70;;;11.35;;
55140;SDS011;41035;44.280;19.870;2022-10-31T03:43:55;23.05;;;13.13;;
55140;SDS011;41035;44.280;19.870;2022-10-31T03:46:22;24.88;;;13.63;;
55140;SDS011;41035;44.280;19.870;2022-10-31T03:48:49;20.25;;;10.82;;
55140;SDS011;41035;44.280;19.870;2022-10-31T03:54:00;19.77;;;10.52;;
55140;SDS011;41035;44.280;19.870;2022-10-31T03:59:05;16.27;;;8.75;;
55140;SDS011;41035;44.280;19.870;2022-10-31T04:01:32;13.60;;;8.40;;
55140;SDS011;41035;44.280;19.870;2022-10-31T04:04:00;16.45;;;8.02;;
55140;SDS011;41035;44.280;19.870;2022-10-31T04:06:27;12.63;;;8.27;;
55140;SDS011;41035;44.280;19.870;2022-10-31T04:08:56;16.58;;;9.48;;
55140;SDS011;41035;44.280;19.870;2022-10-31T04:11:25;17.98;;;9.27;;
55140;SDS011;41035;44.280;19.870;2022-10-31T04:13:52;13.20;;;9.02;;
55140;SDS011;41035;44.280;19.870;2022-10-31T04:16:19;13.15;;;9.15;;
55140;SDS011;41035;44.280;19.870;2022-10-31T04:18:46;17.23;;;10.27;;
55140;SDS011;41035;44.280;19.870;2022-10-31T04:21:12;16.52;;;10.30;;
55140;SDS011;41035;44.280;19.870;2022-10-31T04:23:38;15.05;;;10.68;;
55140;SDS011;41035;44.280;19.870;2022-10-31T04:26:04;17.80;;;10.73;;
55140;SDS011;41035;44.280;19.870;2022-10-31T04:28:30;19.00;;;10.23;;
55140;SDS011;41035;44.280;19.870;2022-10-31T04:30:58;16.33;;;10.32;;
55140;SDS011;41035;44.280;19.870;2022-10-31T04:33:24;20.10;;;11.75;;
55140;SDS011;41035;44.280;19.870;2022-10-31T04:35:50;18.05;;;10.95;;
55140;SDS011;41035;44.280;19.870;2022-10-31T04:38:16;17.15;;;9.50;;
55140;SDS011;41035;44.280;19.870;2022-10-31T04:40:44;15.85;;;10.40;;
55140;SDS011;41035;44.280;19.870;2022-10-31T04:43:13;19.27;;;10.57;;
55140;SDS011;41035;44.280;19.870;2022-10-31T04:45:41;14.82;;;10.43;;
55140;SDS011;41035;44.280;19.870;2022-10-31T04:48:14;19.55;;;11.38;;
55140;SDS011;41035;44.280;19.870;2022-10-31T04:50:41;16.13;;;10.52;;
55140;SDS011;41035;44.280;19.870;2022-10-31T04:53:07;18.02;;;9.90;;
55140;SDS011;41035;44.280;19.870;2022-10-31T04:55:34;16.67;;;9.70;;
55140;SDS011;41035;44.280;19.870;2022-10-31T04:58:03;14.63;;;9.27;;
55140;SDS011;41035;44.280;19.870;2022-10-31T05:00:29;15.35;;;9.05;;
55140;SDS011;41035;44.280;19.870;2022-10-31T05:02:56;15.85;;;9.85;;
55140;SDS011;41035;44.280;19.870;2022-10-31T05:05:23;20.60;;;10.50;;
55140;SDS011;41035;44.280;19.870;2022-10-31T05:07:49;13.48;;;9.60;;
55140;SDS011;41035;44.280;19.870;2022-10-31T05:10:20;29.17;;;16.77;;
55140;SDS011;41035;44.280;19.870;2022-10-31T05:12:50;20.70;;;13.88;;
55140;SDS011;41035;44.280;19.870;2022-10-31T05:15:17;27.60;;;13.60;;
55140;SDS011;41035;44.280;19.870;2022-10-31T05:17:44;21.20;;;12.68;;
55140;SDS011;41035;44.280;19.870;2022-10-31T05:20:16;20.42;;;12.38;;
55140;SDS011;41035;44.280;19.870;2022-10-31T05:22:47;17.83;;;11.90;;
55140;SDS011;41035;44.280;19.870;2022-10-31T05:25:14;20.48;;;10.57;;
55140;SDS011;41035;44.280;19.870;2022-10-31T05:27:42;14.82;;;8.93;;
55140;SDS011;41035;44.280;19.870;2022-10-31T05:30:08;19.77;;;10.68;;
55140;SDS011;41035;44.280;19.870;2022-10-31T05:32:38;18.95;;;10.32;;
55140;SDS011;41035;44.280;19.870;2022-10-31T05:35:05;20.80;;;10.65;;
55140;SDS011;41035;44.280;19.870;2022-10-31T05:37:33;17.98;;;11.27;;
55140;SDS011;41035;44.280;19.870;2022-10-31T05:39:59;21.77;;;13.45;;
55140;SDS011;41035;44.280;19.870;2022-10-31T05:42:25;29.13;;;15.40;;
55140;SDS011;41035;44.280;19.870;2022-10-31T05:44:51;29.02;;;19.20;;
55140;SDS011;41035;44.280;19.870;2022-10-31T05:47:17;30.60;;;17.10;;
55140;SDS011;41035;44.280;19.870;2022-10-31T05:49:43;34.03;;;17.52;;
55140;SDS011;41035;44.280;19.870;2022-10-31T05:52:09;33.45;;;16.33;;
55140;SDS011;41035;44.280;19.870;2022-10-31T05:54:36;26.80;;;14.70;;
55140;SDS011;41035;44.280;19.870;2022-10-31T05:57:02;25.63;;;14.63;;
55140;SDS011;41035;44.280;19.870;2022-10-31T05:59:28;21.40;;;13.88;;
55140;SDS011;41035;44.280;19.870;2022-10-31T06:01:57;30.50;;;17.48;;
55140;SDS011;41035;44.280;19.870;2022-10-31T06:04:23;37.10;;;22.55;;
55140;SDS011;41035;44.280;19.870;2022-10-31T06:06:49;47.10;;;25.95;;
55140;SDS011;41035;44.280;19.870;2022-10-31T06:09:15;35.15;;;21.48;;
55140;SDS011;41035;44.280;19.870;2022-10-31T06:11:41;28.95;;;17.92;;
55140;SDS011;41035;44.280;19.870;2022-10-31T06:14:08;28.83;;;16.65;;
55140;SDS011;41035;44.280;19.870;2022-10-31T06:16:35;29.58;;;17.60;;
55140;SDS011;41035;44.280;19.870;2022-10-31T06:19:01;33.63;;;19.33;;
55140;SDS011;41035;44.280;19.870;2022-10-31T06:21:27;40.70;;;24.02;;
55140;SDS011;41035;44.280;19.870;2022-10-31T06:23:53;48.72;;;31.40;;
55140;SDS011;41035;44.280;19.870;2022-10-31T06:26:21;37.58;;;23.80;;
55140;SDS011;41035;44.280;19.870;2022-10-31T06:28:47;32.22;;;20.48;;
55140;SDS011;41035;44.280;19.870;2022-10-31T06:31:14;36.67;;;21.85;;
55140;SDS011;41035;44.280;19.870;2022-10-31T06:33:41;38.63;;;20.98;;
55140;SDS011;41035;44.280;19.870;2022-10-31T06:36:07;32.78;;;19.60;;
55140;SDS011;41035;44.280;19.870;2022-10-31T06:38:35;31.90;;;17.88;;
55140;SDS011;41035;44.280;19.870;2022-10-31T06:41:04;31.23;;;16.88;;
55140;SDS011;41035;44.280;19.870;2022-10-31T06:43:30;25.65;;;15.10;;
55140;SDS011;41035;44.280;19.870;2022-10-31T06:45:57;23.45;;;13.52;;
55140;SDS011;41035;44.280;19.870;2022-10-31T06:48:24;22.83;;;14.13;;
55140;SDS011;41035;44.280;19.870;2022-10-31T06:50:50;29.92;;;14.80;;
55140;SDS011;41035;44.280;19.870;2022-10-31T06:53:20;33.72;;;16.50;;
55140;SDS011;41035;44.280;19.870;2022-10-31T06:55:47;27.00;;;16.50;;
55140;SDS011;41035;44.280;19.870;2022-10-31T06:58:13;30.98;;;17.50;;
55140;SDS011;41035;44.280;19.870;2022-10-31T07:00:39;44.15;;;21.75;;
55140;SDS011;41035;44.280;19.870;2022-10-31T07:03:06;60.38;;;39.22;;
55140;SDS011;41035;44.280;19.870;2022-10-31T07:05:33;61.70;;;39.28;;
55140;SDS011;41035;44.280;19.870;2022-10-31T07:07:59;59.20;;;38.58;;
55140;SDS011;41035;44.280;19.870;2022-10-31T07:10:26;62.15;;;37.03;;
55140;SDS011;41035;44.280;19.870;2022-10-31T07:12:56;57.15;;;36.75;;
55140;SDS011;41035;44.280;19.870;2022-10-31T07:15:23;63.35;;;36.30;;
55140;SDS011;41035;44.280;19.870;2022-10-31T07:17:49;62.17;;;37.70;;
55140;SDS011;41035;44.280;19.870;2022-10-31T07:20:16;70.13;;;38.70;;
55140;SDS011;41035;44.280;19.870;2022-10-31T07:22:42;67.82;;;38.10;;
55140;SDS011;41035;44.280;19.870;2022-10-31T07:25:08;61.45;;;35.05;;
55140;SDS011;41035;44.280;19.870;2022-10-31T07:27:38;55.10;;;33.95;;
55140;SDS011;41035;44.280;19.870;2022-10-31T07:30:05;55.17;;;31.88;;
55140;SDS011;41035;44.280;19.870;2022-10-31T07:32:41;65.97;;;35.40;;
55140;SDS011;41035;44.280;19.870;2022-10-31T07:35:07;69.25;;;38.53;;
55140;SDS011;41035;44.280;19.870;2022-10-31T07:37:34;70.88;;;38.20;;
55140;SDS011;41035;44.280;19.870;2022-10-31T07:40:02;57.33;;;32.13;;
55140;SDS011;41035;44.280;19.870;2022-10-31T07:42:28;48.92;;;26.23;;
55140;SDS011;41035;44.280;19.870;2022-10-31T07:44:54;57.75;;;33.35;;
55140;SDS011;41035;44.280;19.870;2022-10-31T07:47:21;89.40;;;50.15;;
55140;SDS011;41035;44.280;19.870;2022-10-31T07:49:47;80.57;;;44.05;;
55140;SDS011;41035;44.280;19.870;2022-10-31T07:52:15;79.60;;;40.22;;
55140;SDS011;41035;44.280;19.870;2022-10-31T07:54:41;89.40;;;39.53;;
55140;SDS011;41035;44.280;19.870;2022-10-31T07:57:07;64.35;;;31.35;;
55140;SDS011;41035;44.280;19.870;2022-10-31T07:59:33;45.13;;;27.77;;
55140;SDS011;41035;44.280;19.870;2022-10-31T08:01:59;54.05;;;26.48;;
55140;SDS011;41035;44.280;19.870;2022-10-31T08:04:26;42.72;;;25.25;;
55140;SDS011;41035;44.280;19.870;2022-10-31T08:06:54;43.90;;;22.83;;
55140;SDS011;41035;44.280;19.870;2022-10-31T08:09:20;42.88;;;24.20;;
55140;SDS011;41035;44.280;19.870;2022-10-31T08:11:46;42.70;;;22.13;;
55140;SDS011;41035;44.280;19.870;2022-10-31T08:14:13;35.65;;;20.23;;
55140;SDS011;41035;44.280;19.870;2022-10-31T08:16:39;34.85;;;20.70;;
55140;SDS011;41035;44.280;19.870;2022-10-31T08:19:05;40.03;;;21.42;;
55140;SDS011;41035;44.280;19.870;2022-10-31T08:21:31;50.15;;;23.45;;
55140;SDS011;41035;44.280;19.870;2022-10-31T08:23:57;43.55;;;22.55;;
55140;SDS011;41035;44.280;19.870;2022-10-31T08:26:23;44.33;;;21.90;;
55140;SDS011;41035;44.280;19.870;2022-10-31T08:28:50;43.97;;;19.73;;
55140;SDS011;41035;44.280;19.870;2022-10-31T08:31:18;33.92;;;15.70;;
55140;SDS011;41035;44.280;19.870;2022-10-31T08:33:44;34.40;;;18.60;;
55140;SDS011;41035;44.280;19.870;2022-10-31T08:36:11;53.00;;;23.55;;
55140;SDS011;41035;44.280;19.870;2022-10-31T08:38:37;47.65;;;22.63;;
55140;SDS011;41035;44.280;19.870;2022-10-31T08:41:03;45.28;;;21.15;;
55140;SDS011;41035;44.280;19.870;2022-10-31T08:43:29;40.05;;;18.58;;
55140;SDS011;41035;44.280;19.870;2022-10-31T08:45:55;53.17;;;19.90;;
55140;SDS011;41035;44.280;19.870;2022-10-31T08:48:21;50.42;;;16.77;;
55140;SDS011;41035;44.280;19.870;2022-10-31T08:50:47;37.90;;;16.35;;
55140;SDS011;41035;44.280;19.870;2022-10-31T08:53:14;41.72;;;15.93;;
55140;SDS011;41035;44.280;19.870;2022-10-31T08:55:41;34.47;;;13.75;;
55140;SDS011;41035;44.280;19.870;2022-10-31T08:58:15;37.88;;;15.10;;
55140;SDS011;41035;44.280;19.870;2022-10-31T09:00:41;27.42;;;13.10;;
55140;SDS011;41035;44.280;19.870;2022-10-31T09:03:11;27.63;;;12.75;;
55140;SDS011;41035;44.280;19.870;2022-10-31T09:05:38;32.33;;;15.60;;
55140;SDS011;41035;44.280;19.870;2022-10-31T09:08:04;40.72;;;16.73;;
55140;SDS011;41035;44.280;19.870;2022-10-31T09:10:31;37.83;;;17.60;;
55140;SDS011;41035;44.280;19.870;2022-10-31T09:13:02;33.08;;;16.08;;
55140;SDS011;41035;44.280;19.870;2022-10-31T09:15:31;50.35;;;17.65;;
55140;SDS011;41035;44.280;19.870;2022-10-31T09:17:58;44.30;;;16.73;;
55140;SDS011;41035;44.280;19.870;2022-10-31T09:20:29;45.67;;;17.55;;
55140;SDS011;41035;44.280;19.870;2022-10-31T09:23:12;38.30;;;16.83;;
55140;SDS011;41035;44.280;19.870;2022-10-31T09:25:38;37.85;;;14.50;;
55140;SDS011;41035;44.280;19.870;2022-10-31T09:28:05;32.75;;;13.50;;
55140;SDS011;41035;44.280;19.870;2022-10-31T09:30:34;39.38;;;13.65;;
55140;SDS011;41035;44.280;19.870;2022-10-31T09:33:03;36.10;;;13.65;;
55140;SDS011;41035;44.280;19.870;2022-10-31T09:35:29;31.25;;;12.95;;
55140;SDS011;41035;44.280;19.870;2022-10-31T09:37:59;29.88;;;9.98;;
55140;SDS011;41035;44.280;19.870;2022-10-31T09:45:34;28.80;;;9.90;;
55140;SDS011;41035;44.280;19.870;2022-10-31T09:50:41;24.92;;;8.20;;
55140;SDS011;41035;44.280;19.870;2022-10-31T09:53:22;25.08;;;8.68;;
55140;SDS011;41035;44.280;19.870;2022-10-31T09:55:49;24.27;;;8.23;;
55140;SDS011;41035;44.280;19.870;2022-10-31T09:58:22;24.92;;;7.32;;
55140;SDS011;41035;44.280;19.870;2022-10-31T10:00:49;22.05;;;7.25;;
55140;SDS011;41035;44.280;19.870;2022-10-31T10:08:35;18.15;;;6.55;;
55140;SDS011;41035;44.280;19.870;2022-10-31T10:16:06;13.00;;;5.70;;
55140;SDS011;41035;44.280;19.870;2022-10-31T10:23:55;17.58;;;6.55;;
55140;SDS011;41035;44.280;19.870;2022-10-31T10:26:23;20.75;;;6.65;;
55140;SDS011;41035;44.280;19.870;2022-10-31T10:28:57;16.65;;;6.72;;
55140;SDS011;41035;44.280;19.870;2022-10-31T10:31:25;22.85;;;7.32;;
55140;SDS011;41035;44.280;19.870;2022-10-31T10:34:06;22.15;;;7.03;;
55140;SDS011;41035;44.280;19.870;2022-10-31T10:36:38;24.70;;;10.18;;
55140;SDS011;41035;44.280;19.870;2022-10-31T10:41:32;21.30;;;8.35;;
55140;SDS011;41035;44.280;19.870;2022-10-31T10:44:00;18.33;;;7.28;;
55140;SDS011;41035;44.280;19.870;2022-10-31T10:49:34;18.63;;;7.40;;
55140;SDS011;41035;44.280;19.870;2022-10-31T10:52:07;16.25;;;5.97;;
55140;SDS011;41035;44.280;19.870;2022-10-31T10:54:38;15.73;;;6.00;;
55140;SDS011;41035;44.280;19.870;2022-10-31T10:59:50;27.20;;;10.10;;
55140;SDS011;41035;44.280;19.870;2022-10-31T11:02:18;33.20;;;14.23;;
55140;SDS011;41035;44.280;19.870;2022-10-31T11:04:45;35.67;;;18.43;;
55140;SDS011;41035;44.280;19.870;2022-10-31T11:07:13;17.85;;;8.88;;
55140;SDS011;41035;44.280;19.870;2022-10-31T11:09:39;23.75;;;10.18;;
55140;SDS011;41035;44.280;19.870;2022-10-31T11:12:08;24.23;;;7.90;;
55140;SDS011;41035;44.280;19.870;2022-10-31T11:14:45;18.42;;;6.78;;
55140;SDS011;41035;44.280;19.870;2022-10-31T11:17:29;15.00;;;6.93;;
55140;SDS011;41035;44.280;19.870;2022-10-31T11:20:04;13.35;;;7.13;;
55140;SDS011;41035;44.280;19.870;2022-10-31T11:22:30;20.52;;;6.70;;
55140;SDS011;41035;44.280;19.870;2022-10-31T11:24:56;12.13;;;6.47;;
55140;SDS011;41035;44.280;19.870;2022-10-31T11:27:23;15.57;;;5.57;;
55140;SDS011;41035;44.280;19.870;2022-10-31T11:29:50;10.27;;;5.15;;
55140;SDS011;41035;44.280;19.870;2022-10-31T11:32:20;18.10;;;9.23;;
55140;SDS011;41035;44.280;19.870;2022-10-31T11:34:51;18.02;;;7.93;;
55140;SDS011;41035;44.280;19.870;2022-10-31T11:37:20;13.50;;;7.07;;
55140;SDS011;41035;44.280;19.870;2022-10-31T11:39:51;18.27;;;8.80;;
55140;SDS011;41035;44.280;19.870;2022-10-31T11:42:22;26.25;;;10.23;;
55140;SDS011;41035;44.280;19.870;2022-10-31T11:44:49;12.77;;;4.88;;
55140;SDS011;41035;44.280;19.870;2022-10-31T11:47:16;15.73;;;6.70;;
55140;SDS011;41035;44.280;19.870;2022-10-31T11:49:43;18.08;;;8.25;;
55140;SDS011;41035;44.280;19.870;2022-10-31T11:52:15;23.02;;;7.35;;
55140;SDS011;41035;44.280;19.870;2022-10-31T11:54:46;15.02;;;7.38;;
55140;SDS011;41035;44.280;19.870;2022-10-31T12:00:03;21.33;;;7.03;;
55140;SDS011;41035;44.280;19.870;2022-10-31T12:02:31;13.38;;;6.65;;
55140;SDS011;41035;44.280;19.870;2022-10-31T12:05:02;13.88;;;6.05;;
55140;SDS011;41035;44.280;19.870;2022-10-31T12:07:30;15.68;;;6.60;;
55140;SDS011;41035;44.280;19.870;2022-10-31T12:09:56;22.92;;;6.63;;
55140;SDS011;41035;44.280;19.870;2022-10-31T12:12:33;9.45;;;4.13;;
55140;SDS011;41035;44.280;19.870;2022-10-31T12:15:03;15.45;;;5.22;;
55140;SDS011;41035;44.280;19.870;2022-10-31T12:17:35;12.93;;;6.65;;
55140;SDS011;41035;44.280;19.870;2022-10-31T12:20:06;13.82;;;6.38;;
55140;SDS011;41035;44.280;19.870;2022-10-31T12:28:03;22.25;;;8.90;;
55140;SDS011;41035;44.280;19.870;2022-10-31T12:33:29;22.83;;;7.88;;
55140;SDS011;41035;44.280;19.870;2022-10-31T12:36:00;18.02;;;7.70;;
55140;SDS011;41035;44.280;19.870;2022-10-31T12:43:45;28.15;;;9.40;;
55140;SDS011;41035;44.280;19.870;2022-10-31T12:46:22;20.00;;;9.93;;
55140;SDS011;41035;44.280;19.870;2022-10-31T12:51:35;26.90;;;9.95;;
55140;SDS011;41035;44.280;19.870;2022-10-31T12:56:47;24.70;;;11.50;;
55140;SDS011;41035;44.280;19.870;2022-10-31T12:59:35;27.50;;;11.23;;
55140;SDS011;41035;44.280;19.870;2022-10-31T13:02:19;26.13;;;13.25;;
55140;SDS011;41035;44.280;19.870;2022-10-31T13:07:18;28.90;;;11.80;;
55140;SDS011;41035;44.280;19.870;2022-10-31T13:09:50;31.25;;;11.43;;
55140;SDS011;41035;44.280;19.870;2022-10-31T13:12:19;34.17;;;11.35;;
55140;SDS011;41035;44.280;19.870;2022-10-31T13:14:53;23.53;;;9.73;;
55140;SDS011;41035;44.280;19.870;2022-10-31T13:17:22;23.73;;;11.50;;
55140;SDS011;41035;44.280;19.870;2022-10-31T13:19:49;39.17;;;14.15;;
55140;SDS011;41035;44.280;19.870;2022-10-31T13:22:17;25.48;;;12.00;;
55140;SDS011;41035;44.280;19.870;2022-10-31T13:27:23;30.63;;;12.18;;
55140;SDS011;41035;44.280;19.870;2022-10-31T13:32:26;33.67;;;16.63;;
55140;SDS011;41035;44.280;19.870;2022-10-31T13:34:55;31.67;;;16.05;;
55140;SDS011;41035;44.280;19.870;2022-10-31T13:45:19;28.80;;;14.30;;
55140;SDS011;41035;44.280;19.870;2022-10-31T13:47:56;27.17;;;12.68;;
55140;SDS011;41035;44.280;19.870;2022-10-31T13:50:23;35.67;;;13.45;;
55140;SDS011;41035;44.280;19.870;2022-10-31T13:52:50;41.78;;;15.10;;
55140;SDS011;41035;44.280;19.870;2022-10-31T13:58:27;27.55;;;13.05;;
55140;SDS011;41035;44.280;19.870;2022-10-31T14:03:30;34.10;;;13.05;;
55140;SDS011;41035;44.280;19.870;2022-10-31T14:05:56;31.00;;;12.63;;
55140;SDS011;41035;44.280;19.870;2022-10-31T14:08:23;29.02;;;13.63;;
55140;SDS011;41035;44.280;19.870;2022-10-31T14:10:52;35.03;;;13.88;;
55140;SDS011;41035;44.280;19.870;2022-10-31T14:13:29;27.27;;;12.45;;
55140;SDS011;41035;44.280;19.870;2022-10-31T14:16:01;31.35;;;13.52;;
55140;SDS011;41035;44.280;19.870;2022-10-31T14:18:37;35.70;;;16.58;;
55140;SDS011;41035;44.280;19.870;2022-10-31T14:24:00;53.22;;;26.55;;
55140;SDS011;41035;44.280;19.870;2022-10-31T14:26:31;46.17;;;24.13;;
55140;SDS011;41035;44.280;19.870;2022-10-31T14:33:50;31.83;;;17.85;;
55140;SDS011;41035;44.280;19.870;2022-10-31T14:36:25;42.20;;;22.10;;
55140;SDS011;41035;44.280;19.870;2022-10-31T14:38:55;39.65;;;21.27;;
55140;SDS011;41035;44.280;19.870;2022-10-31T14:47:14;33.72;;;19.10;;
55140;SDS011;41035;44.280;19.870;2022-10-31T14:52:21;29.52;;;18.58;;
55140;SDS011;41035;44.280;19.870;2022-10-31T14:57:44;31.48;;;19.35;;
55140;SDS011;41035;44.280;19.870;2022-10-31T15:00:18;39.15;;;21.55;;
55140;SDS011;41035;44.280;19.870;2022-10-31T15:02:56;37.72;;;21.73;;
55140;SDS011;41035;44.280;19.870;2022-10-31T15:05:23;53.17;;;25.83;;
55140;SDS011;41035;44.280;19.870;2022-10-31T15:07:56;41.33;;;24.45;;
55140;SDS011;41035;44.280;19.870;2022-10-31T15:12:49;37.53;;;24.42;;
55140;SDS011;41035;44.280;19.870;2022-10-31T15:15:25;47.38;;;28.92;;
55140;SDS011;41035;44.280;19.870;2022-10-31T15:17:58;41.60;;;26.83;;
55140;SDS011;41035;44.280;19.870;2022-10-31T15:20:27;40.72;;;25.02;;
55140;SDS011;41035;44.280;19.870;2022-10-31T15:22:54;44.40;;;30.83;;
55140;SDS011;41035;44.280;19.870;2022-10-31T15:25:27;47.63;;;28.00;;
55140;SDS011;41035;44.280;19.870;2022-10-31T15:27:54;40.60;;;26.95;;
55140;SDS011;41035;44.280;19.870;2022-10-31T15:30:27;48.15;;;29.30;;
55140;SDS011;41035;44.280;19.870;2022-10-31T15:32:53;40.50;;;28.65;;
55140;SDS011;41035;44.280;19.870;2022-10-31T15:35:27;58.95;;;31.65;;
55140;SDS011;41035;44.280;19.870;2022-10-31T15:37:54;68.15;;;44.28;;
55140;SDS011;41035;44.280;19.870;2022-10-31T15:40:21;70.47;;;44.97;;
55140;SDS011;41035;44.280;19.870;2022-10-31T15:43:02;86.72;;;51.15;;
55140;SDS011;41035;44.280;19.870;2022-10-31T15:45:29;100.03;;;57.42;;
55140;SDS011;41035;44.280;19.870;2022-10-31T15:47:57;88.35;;;49.13;;
55140;SDS011;41035;44.280;19.870;2022-10-31T15:50:29;76.90;;;43.97;;
55140;SDS011;41035;44.280;19.870;2022-10-31T15:52:56;61.80;;;39.88;;
55140;SDS011;41035;44.280;19.870;2022-10-31T15:55:27;63.83;;;37.90;;
55140;SDS011;41035;44.280;19.870;2022-10-31T15:57:58;50.38;;;32.70;;
55140;SDS011;41035;44.280;19.870;2022-10-31T16:00:29;45.75;;;32.33;;
55140;SDS011;41035;44.280;19.870;2022-10-31T16:08:21;60.55;;;37.97;;
55140;SDS011;41035;44.280;19.870;2022-10-31T16:10:49;143.02;;;85.63;;
55140;SDS011;41035;44.280;19.870;2022-10-31T16:13:15;89.55;;;58.70;;
55140;SDS011;41035;44.280;19.870;2022-10-31T16:15:48;94.35;;;61.00;;
55140;SDS011;41035;44.280;19.870;2022-10-31T16:18:15;96.43;;;59.47;;
55140;SDS011;41035;44.280;19.870;2022-10-31T16:20:47;97.07;;;62.90;;
55140;SDS011;41035;44.280;19.870;2022-10-31T16:23:16;104.93;;;68.32;;
55140;SDS011;41035;44.280;19.870;2022-10-31T16:25:43;108.82;;;67.18;;
55140;SDS011;41035;44.280;19.870;2022-10-31T16:28:27;145.30;;;90.00;;
55140;SDS011;41035;44.280;19.870;2022-10-31T16:30:55;191.13;;;115.22;;
55140;SDS011;41035;44.280;19.870;2022-10-31T16:33:34;237.80;;;150.98;;